sensor_id;sensor_type;location;lat;lon;timestamp;P1;durP1;ratioP1;P2;durP2;ratioP2
28577;SDS011;15769;52.248;15.818;2023-04-03T00:00:13;10.40;;;3.00;;
28577;SDS011;15769;52.248;15.818;2023-04-03T00:05:35;9.93;;;3.00;;
28577;SDS011;15769;52.248;15.818;2023-04-03T00:10:38;13.18;;;3.65;;
28577;SDS011;15769;52.248;15.818;2023-04-03T00:15:40;10.23;;;2.92;;
28577;SDS011;15769;52.248;15.818;2023-04-03T00:20:43;8.98;;;3.33;;
28577;SDS011;15769;52.248;15.818;2023-04-03T00:25:46;8.83;;;3.20;;
28577;SDS011;15769;52.248;15.818;2023-04-03T00:30:49;9.77;;;2.88;;
28577;SDS011;15769;52.248;15.818;2023-04-03T00:40:54;9.43;;;2.42;;
28577;SDS011;15769;52.248;15.818;2023-04-03T00:45:57;10.18;;;2.38;;
28577;SDS011;15769;52.248;15.818;2023-04-03T00:56:04;10.88;;;2.65;;
28577;SDS011;15769;52.248;15.818;2023-04-03T01:01:08;8.63;;;2.95;;
28577;SDS011;15769;52.248;15.818;2023-04-03T01:06:16;7.53;;;2.80;;
28577;SDS011;15769;52.248;15.818;2023-04-03T01:11:21;7.97;;;2.72;;
28577;SDS011;15769;52.248;15.818;2023-04-03T01:21:34;9.25;;;3.22;;
28577;SDS011;15769;52.248;15.818;2023-04-03T01:26:39;8.77;;;3.42;;
28577;SDS011;15769;52.248;15.818;2023-04-03T01:36:51;15.00;;;3.15;;
28577;SDS011;15769;52.248;15.818;2023-04-03T01:41:55;9.73;;;3.13;;
28577;SDS011;15769;52.248;15.818;2023-04-03T01:47:05;10.82;;;3.30;;
28577;SDS011;15769;52.248;15.818;2023-04-03T01:52:09;11.13;;;2.50;;
28577;SDS011;15769;52.248;15.818;2023-04-03T01:57:11;7.93;;;2.33;;
28577;SDS011;15769;52.248;15.818;2023-04-03T02:02:16;8.60;;;2.45;;
28577;SDS011;15769;52.248;15.818;2023-04-03T02:07:18;6.53;;;1.90;;
28577;SDS011;15769;52.248;15.818;2023-04-03T02:12:21;15.82;;;3.53;;
28577;SDS011;15769;52.248;15.818;2023-04-03T02:17:23;11.98;;;2.92;;
28577;SDS011;15769;52.248;15.818;2023-04-03T02:22:26;10.02;;;2.70;;
28577;SDS011;15769;52.248;15.818;2023-04-03T02:27:28;7.57;;;2.47;;
28577;SDS011;15769;52.248;15.818;2023-04-03T02:32:31;7.50;;;2.67;;
28577;SDS011;15769;52.248;15.818;2023-04-03T02:37:34;5.72;;;2.53;;
28577;SDS011;15769;52.248;15.818;2023-04-03T02:42:37;11.97;;;2.70;;
28577;SDS011;15769;52.248;15.818;2023-04-03T02:47:40;7.63;;;2.25;;
28577;SDS011;15769;52.248;15.818;2023-04-03T02:57:46;8.15;;;2.58;;
28577;SDS011;15769;52.248;15.818;2023-04-03T03:02:49;9.13;;;2.72;;
28577;SDS011;15769;52.248;15.818;2023-04-03T03:07:52;5.30;;;2.30;;
28577;SDS011;15769;52.248;15.818;2023-04-03T03:12:55;8.43;;;2.17;;
28577;SDS011;15769;52.248;15.818;2023-04-03T03:17:57;7.33;;;2.23;;
28577;SDS011;15769;52.248;15.818;2023-04-03T03:23:00;11.23;;;2.80;;
28577;SDS011;15769;52.248;15.818;2023-04-03T03:28:03;7.97;;;2.33;;
28577;SDS011;15769;52.248;15.818;2023-04-03T03:33:05;9.63;;;2.97;;
28577;SDS011;15769;52.248;15.818;2023-04-03T03:38:08;8.45;;;2.25;;
28577;SDS011;15769;52.248;15.818;2023-04-03T03:43:10;8.77;;;3.57;;
28577;SDS011;15769;52.248;15.818;2023-04-03T03:48:13;11.10;;;4.87;;
28577;SDS011;15769;52.248;15.818;2023-04-03T03:53:16;11.48;;;3.63;;
28577;SDS011;15769;52.248;15.818;2023-04-03T03:58:19;10.43;;;3.17;;
28577;SDS011;15769;52.248;15.818;2023-04-03T04:03:21;6.10;;;2.67;;
28577;SDS011;15769;52.248;15.818;2023-04-03T04:08:25;8.55;;;2.53;;
28577;SDS011;15769;52.248;15.818;2023-04-03T04:13:28;11.47;;;4.13;;
28577;SDS011;15769;52.248;15.818;2023-04-03T04:18:31;10.15;;;3.70;;
28577;SDS011;15769;52.248;15.818;2023-04-03T04:23:33;6.85;;;3.20;;
28577;SDS011;15769;52.248;15.818;2023-04-03T04:28:36;18.63;;;6.77;;
28577;SDS011;15769;52.248;15.818;2023-04-03T04:33:40;11.20;;;4.68;;
28577;SDS011;15769;52.248;15.818;2023-04-03T04:38:45;7.60;;;3.28;;
28577;SDS011;15769;52.248;15.818;2023-04-03T04:43:49;13.18;;;3.42;;
28577;SDS011;15769;52.248;15.818;2023-04-03T04:48:52;9.43;;;3.67;;
28577;SDS011;15769;52.248;15.818;2023-04-03T04:53:57;10.90;;;2.80;;
28577;SDS011;15769;52.248;15.818;2023-04-03T04:59:00;7.63;;;2.58;;
28577;SDS011;15769;52.248;15.818;2023-04-03T05:09:06;11.65;;;3.92;;
28577;SDS011;15769;52.248;15.818;2023-04-03T05:14:09;9.95;;;3.95;;
28577;SDS011;15769;52.248;15.818;2023-04-03T05:19:12;11.25;;;5.05;;
28577;SDS011;15769;52.248;15.818;2023-04-03T05:24:16;6.55;;;2.50;;
28577;SDS011;15769;52.248;15.818;2023-04-03T05:29:18;4.00;;;2.37;;
28577;SDS011;15769;52.248;15.818;2023-04-03T05:34:22;5.43;;;2.30;;
28577;SDS011;15769;52.248;15.818;2023-04-03T05:39:28;5.18;;;2.10;;
28577;SDS011;15769;52.248;15.818;2023-04-03T05:49:33;6.75;;;2.58;;
28577;SDS011;15769;52.248;15.818;2023-04-03T05:54:37;12.32;;;3.15;;
28577;SDS011;15769;52.248;15.818;2023-04-03T05:59:49;4.47;;;2.60;;
28577;SDS011;15769;52.248;15.818;2023-04-03T06:04:52;11.90;;;5.13;;
28577;SDS011;15769;52.248;15.818;2023-04-03T06:09:56;17.35;;;7.43;;
28577;SDS011;15769;52.248;15.818;2023-04-03T06:14:59;15.63;;;4.90;;
28577;SDS011;15769;52.248;15.818;2023-04-03T06:20:01;30.05;;;7.25;;
28577;SDS011;15769;52.248;15.818;2023-04-03T06:25:06;14.25;;;3.70;;
28577;SDS011;15769;52.248;15.818;2023-04-03T06:30:08;18.50;;;5.50;;
28577;SDS011;15769;52.248;15.818;2023-04-03T06:35:11;11.33;;;2.80;;
28577;SDS011;15769;52.248;15.818;2023-04-03T06:40:15;14.70;;;3.83;;
28577;SDS011;15769;52.248;15.818;2023-04-03T06:45:21;18.90;;;4.88;;
28577;SDS011;15769;52.248;15.818;2023-04-03T06:50:24;17.75;;;5.80;;
28577;SDS011;15769;52.248;15.818;2023-04-03T06:55:26;15.98;;;6.22;;
28577;SDS011;15769;52.248;15.818;2023-04-03T07:00:30;11.48;;;5.00;;
28577;SDS011;15769;52.248;15.818;2023-04-03T07:05:33;13.00;;;4.70;;
28577;SDS011;15769;52.248;15.818;2023-04-03T07:10:37;19.35;;;4.85;;
28577;SDS011;15769;52.248;15.818;2023-04-03T07:15:40;8.65;;;3.40;;
28577;SDS011;15769;52.248;15.818;2023-04-03T07:20:43;20.97;;;5.47;;
28577;SDS011;15769;52.248;15.818;2023-04-03T07:25:46;16.97;;;7.67;;
28577;SDS011;15769;52.248;15.818;2023-04-03T07:30:50;25.58;;;8.60;;
28577;SDS011;15769;52.248;15.818;2023-04-03T07:35:54;23.83;;;7.90;;
28577;SDS011;15769;52.248;15.818;2023-04-03T07:40:57;9.88;;;4.55;;
28577;SDS011;15769;52.248;15.818;2023-04-03T07:46:00;30.27;;;10.57;;
28577;SDS011;15769;52.248;15.818;2023-04-03T07:51:03;28.30;;;9.57;;
28577;SDS011;15769;52.248;15.818;2023-04-03T07:56:06;21.77;;;7.63;;
28577;SDS011;15769;52.248;15.818;2023-04-03T08:01:09;18.27;;;7.05;;
28577;SDS011;15769;52.248;15.818;2023-04-03T08:06:12;8.70;;;2.37;;
28577;SDS011;15769;52.248;15.818;2023-04-03T08:11:19;17.50;;;5.82;;
28577;SDS011;15769;52.248;15.818;2023-04-03T08:21:27;13.25;;;4.90;;
28577;SDS011;15769;52.248;15.818;2023-04-03T08:26:30;7.88;;;3.05;;
28577;SDS011;15769;52.248;15.818;2023-04-03T08:31:33;25.98;;;8.13;;
28577;SDS011;15769;52.248;15.818;2023-04-03T08:36:35;13.45;;;5.03;;
28577;SDS011;15769;52.248;15.818;2023-04-03T08:41:41;13.77;;;5.03;;
28577;SDS011;15769;52.248;15.818;2023-04-03T08:47:02;13.68;;;5.55;;
28577;SDS011;15769;52.248;15.818;2023-04-03T08:52:14;11.15;;;4.97;;
28577;SDS011;15769;52.248;15.818;2023-04-03T08:57:29;14.20;;;6.00;;
28577;SDS011;15769;52.248;15.818;2023-04-03T09:07:55;13.30;;;5.65;;
28577;SDS011;15769;52.248;15.818;2023-04-03T09:13:07;12.52;;;6.18;;
28577;SDS011;15769;52.248;15.818;2023-04-03T09:18:28;6.00;;;3.40;;
28577;SDS011;15769;52.248;15.818;2023-04-03T09:28:44;7.20;;;2.90;;
28577;SDS011;15769;52.248;15.818;2023-04-03T09:33:53;5.00;;;2.63;;
28577;SDS011;15769;52.248;15.818;2023-04-03T09:39:05;11.25;;;7.13;;
28577;SDS011;15769;52.248;15.818;2023-04-03T09:44:19;8.20;;;3.53;;
28577;SDS011;15769;52.248;15.818;2023-04-03T09:49:27;6.72;;;3.42;;
28577;SDS011;15769;52.248;15.818;2023-04-03T09:59:31;18.80;;;8.15;;
28577;SDS011;15769;52.248;15.818;2023-04-03T10:04:41;7.53;;;3.27;;
28577;SDS011;15769;52.248;15.818;2023-04-03T10:09:44;6.78;;;2.80;;
28577;SDS011;15769;52.248;15.818;2023-04-03T10:14:58;5.27;;;2.57;;
28577;SDS011;15769;52.248;15.818;2023-04-03T10:20:23;6.93;;;4.20;;
28577;SDS011;15769;52.248;15.818;2023-04-03T10:25:35;14.43;;;6.60;;
28577;SDS011;15769;52.248;15.818;2023-04-03T10:30:49;15.13;;;6.13;;
28577;SDS011;15769;52.248;15.818;2023-04-03T10:46:47;30.98;;;17.33;;
28577;SDS011;15769;52.248;15.818;2023-04-03T10:51:55;7.70;;;4.10;;
28577;SDS011;15769;52.248;15.818;2023-04-03T10:57:04;11.10;;;5.10;;
28577;SDS011;15769;52.248;15.818;2023-04-03T11:02:16;6.28;;;2.58;;
28577;SDS011;15769;52.248;15.818;2023-04-03T11:07:29;6.22;;;3.17;;
28577;SDS011;15769;52.248;15.818;2023-04-03T11:12:49;6.22;;;2.97;;
28577;SDS011;15769;52.248;15.818;2023-04-03T11:17:55;5.90;;;2.78;;
28577;SDS011;15769;52.248;15.818;2023-04-03T11:23:11;2.55;;;1.80;;
28577;SDS011;15769;52.248;15.818;2023-04-03T11:28:19;10.40;;;5.43;;
28577;SDS011;15769;52.248;15.818;2023-04-03T11:33:24;11.87;;;5.80;;
28577;SDS011;15769;52.248;15.818;2023-04-03T11:38:32;6.75;;;3.30;;
28577;SDS011;15769;52.248;15.818;2023-04-03T11:43:42;7.57;;;4.43;;
28577;SDS011;15769;52.248;15.818;2023-04-03T11:48:59;8.73;;;3.78;;
28577;SDS011;15769;52.248;15.818;2023-04-03T11:59:50;8.05;;;3.88;;
28577;SDS011;15769;52.248;15.818;2023-04-03T12:05:24;18.75;;;9.75;;
28577;SDS011;15769;52.248;15.818;2023-04-03T12:10:29;10.40;;;6.00;;
28577;SDS011;15769;52.248;15.818;2023-04-03T12:25:50;27.77;;;11.52;;
28577;SDS011;15769;52.248;15.818;2023-04-03T12:30:54;35.95;;;12.90;;
28577;SDS011;15769;52.248;15.818;2023-04-03T12:41:50;9.40;;;4.32;;
28577;SDS011;15769;52.248;15.818;2023-04-03T12:47:00;31.33;;;11.65;;
28577;SDS011;15769;52.248;15.818;2023-04-03T12:57:43;19.63;;;8.20;;
28577;SDS011;15769;52.248;15.818;2023-04-03T13:02:46;15.63;;;7.83;;
28577;SDS011;15769;52.248;15.818;2023-04-03T13:07:49;13.87;;;5.70;;
28577;SDS011;15769;52.248;15.818;2023-04-03T13:13:06;28.88;;;11.18;;
28577;SDS011;15769;52.248;15.818;2023-04-03T13:23:45;8.13;;;3.55;;
28577;SDS011;15769;52.248;15.818;2023-04-03T13:28:52;5.43;;;3.53;;
28577;SDS011;15769;52.248;15.818;2023-04-03T13:34:02;15.13;;;7.47;;
28577;SDS011;15769;52.248;15.818;2023-04-03T13:39:07;7.50;;;4.18;;
28577;SDS011;15769;52.248;15.818;2023-04-03T13:49:34;6.47;;;2.70;;
28577;SDS011;15769;52.248;15.818;2023-04-03T13:54:38;4.88;;;3.05;;
28577;SDS011;15769;52.248;15.818;2023-04-03T13:59:41;7.90;;;4.20;;
28577;SDS011;15769;52.248;15.818;2023-04-03T14:04:47;7.35;;;4.32;;
28577;SDS011;15769;52.248;15.818;2023-04-03T14:09:52;21.70;;;10.50;;
28577;SDS011;15769;52.248;15.818;2023-04-03T14:14:54;11.60;;;6.30;;
28577;SDS011;15769;52.248;15.818;2023-04-03T14:19:58;18.15;;;11.00;;
28577;SDS011;15769;52.248;15.818;2023-04-03T14:25:00;17.27;;;7.10;;
28577;SDS011;15769;52.248;15.818;2023-04-03T14:30:04;38.78;;;14.77;;
28577;SDS011;15769;52.248;15.818;2023-04-03T14:35:11;61.00;;;25.15;;
28577;SDS011;15769;52.248;15.818;2023-04-03T14:40:15;44.92;;;18.27;;
28577;SDS011;15769;52.248;15.818;2023-04-03T14:45:19;27.50;;;11.07;;
28577;SDS011;15769;52.248;15.818;2023-04-03T14:50:25;21.33;;;7.47;;
28577;SDS011;15769;52.248;15.818;2023-04-03T14:55:29;10.70;;;5.20;;
28577;SDS011;15769;52.248;15.818;2023-04-03T15:00:32;16.67;;;6.23;;
28577;SDS011;15769;52.248;15.818;2023-04-03T15:05:35;17.70;;;6.70;;
28577;SDS011;15769;52.248;15.818;2023-04-03T15:10:38;23.23;;;10.80;;
28577;SDS011;15769;52.248;15.818;2023-04-03T15:15:41;27.80;;;13.93;;
28577;SDS011;15769;52.248;15.818;2023-04-03T15:20:44;19.50;;;10.33;;
28577;SDS011;15769;52.248;15.818;2023-04-03T15:25:47;21.23;;;9.50;;
28577;SDS011;15769;52.248;15.818;2023-04-03T15:30:50;26.25;;;10.70;;
28577;SDS011;15769;52.248;15.818;2023-04-03T15:35:53;19.48;;;9.05;;
28577;SDS011;15769;52.248;15.818;2023-04-03T15:41:08;23.55;;;9.27;;
28577;SDS011;15769;52.248;15.818;2023-04-03T15:46:10;33.05;;;13.52;;
28577;SDS011;15769;52.248;15.818;2023-04-03T15:51:15;18.80;;;9.10;;
28577;SDS011;15769;52.248;15.818;2023-04-03T15:56:17;18.63;;;8.40;;
28577;SDS011;15769;52.248;15.818;2023-04-03T16:01:20;14.73;;;7.05;;
28577;SDS011;15769;52.248;15.818;2023-04-03T16:06:22;26.65;;;9.88;;
28577;SDS011;15769;52.248;15.818;2023-04-03T16:11:26;36.75;;;14.82;;
28577;SDS011;15769;52.248;15.818;2023-04-03T16:16:29;28.90;;;12.48;;
28577;SDS011;15769;52.248;15.818;2023-04-03T16:21:32;24.15;;;10.48;;
28577;SDS011;15769;52.248;15.818;2023-04-03T16:26:42;20.08;;;8.90;;
28577;SDS011;15769;52.248;15.818;2023-04-03T16:31:44;24.38;;;10.50;;
28577;SDS011;15769;52.248;15.818;2023-04-03T16:36:48;29.60;;;12.20;;
28577;SDS011;15769;52.248;15.818;2023-04-03T16:41:50;27.85;;;12.55;;
28577;SDS011;15769;52.248;15.818;2023-04-03T16:46:54;18.90;;;8.68;;
28577;SDS011;15769;52.248;15.818;2023-04-03T16:56:59;53.45;;;21.20;;
28577;SDS011;15769;52.248;15.818;2023-04-03T17:02:02;42.23;;;16.00;;
28577;SDS011;15769;52.248;15.818;2023-04-03T17:07:05;59.55;;;20.08;;
28577;SDS011;15769;52.248;15.818;2023-04-03T17:12:08;38.88;;;15.70;;
28577;SDS011;15769;52.248;15.818;2023-04-03T17:17:11;43.47;;;17.40;;
28577;SDS011;15769;52.248;15.818;2023-04-03T17:22:13;66.63;;;22.13;;
28577;SDS011;15769;52.248;15.818;2023-04-03T17:27:22;36.38;;;16.25;;
28577;SDS011;15769;52.248;15.818;2023-04-03T17:32:25;25.15;;;10.73;;
28577;SDS011;15769;52.248;15.818;2023-04-03T17:37:28;20.98;;;9.18;;
28577;SDS011;15769;52.248;15.818;2023-04-03T17:42:30;33.33;;;13.10;;
28577;SDS011;15769;52.248;15.818;2023-04-03T17:47:34;40.67;;;17.90;;
28577;SDS011;15769;52.248;15.818;2023-04-03T17:52:39;41.25;;;17.83;;
28577;SDS011;15769;52.248;15.818;2023-04-03T17:57:42;48.70;;;17.87;;
28577;SDS011;15769;52.248;15.818;2023-04-03T18:02:45;34.03;;;13.98;;
28577;SDS011;15769;52.248;15.818;2023-04-03T18:07:48;55.05;;;21.88;;
28577;SDS011;15769;52.248;15.818;2023-04-03T18:12:52;43.80;;;25.83;;
28577;SDS011;15769;52.248;15.818;2023-04-03T18:17:55;50.72;;;27.02;;
28577;SDS011;15769;52.248;15.818;2023-04-03T18:23:00;30.20;;;12.55;;
28577;SDS011;15769;52.248;15.818;2023-04-03T18:28:05;39.97;;;17.23;;
28577;SDS011;15769;52.248;15.818;2023-04-03T18:33:08;51.38;;;20.83;;
28577;SDS011;15769;52.248;15.818;2023-04-03T18:38:11;45.55;;;18.27;;
28577;SDS011;15769;52.248;15.818;2023-04-03T18:43:18;58.95;;;23.75;;
28577;SDS011;15769;52.248;15.818;2023-04-03T18:48:21;45.78;;;19.83;;
28577;SDS011;15769;52.248;15.818;2023-04-03T18:53:27;52.60;;;21.03;;
28577;SDS011;15769;52.248;15.818;2023-04-03T18:58:54;55.50;;;22.48;;
28577;SDS011;15769;52.248;15.818;2023-04-03T19:03:58;78.90;;;30.40;;
28577;SDS011;15769;52.248;15.818;2023-04-03T19:09:01;37.25;;;15.60;;
28577;SDS011;15769;52.248;15.818;2023-04-03T19:14:05;41.95;;;18.25;;
28577;SDS011;15769;52.248;15.818;2023-04-03T19:19:18;35.00;;;15.68;;
28577;SDS011;15769;52.248;15.818;2023-04-03T19:24:20;40.55;;;17.17;;
28577;SDS011;15769;52.248;15.818;2023-04-03T19:29:23;35.75;;;15.15;;
28577;SDS011;15769;52.248;15.818;2023-04-03T19:34:26;17.40;;;8.23;;
28577;SDS011;15769;52.248;15.818;2023-04-03T19:39:30;20.40;;;9.20;;
28577;SDS011;15769;52.248;15.818;2023-04-03T19:44:35;16.35;;;8.60;;
28577;SDS011;15769;52.248;15.818;2023-04-03T19:49:38;15.32;;;8.05;;
28577;SDS011;15769;52.248;15.818;2023-04-03T19:54:40;15.65;;;6.95;;
28577;SDS011;15769;52.248;15.818;2023-04-03T19:59:48;9.65;;;4.65;;
28577;SDS011;15769;52.248;15.818;2023-04-03T20:04:56;16.85;;;6.95;;
28577;SDS011;15769;52.248;15.818;2023-04-03T20:10:50;16.88;;;7.90;;
28577;SDS011;15769;52.248;15.818;2023-04-03T20:16:01;19.08;;;9.45;;
28577;SDS011;15769;52.248;15.818;2023-04-03T20:21:16;17.55;;;7.00;;
28577;SDS011;15769;52.248;15.818;2023-04-03T20:26:21;16.38;;;8.23;;
28577;SDS011;15769;52.248;15.818;2023-04-03T20:31:28;30.15;;;12.43;;
28577;SDS011;15769;52.248;15.818;2023-04-03T20:36:31;23.77;;;8.77;;
28577;SDS011;15769;52.248;15.818;2023-04-03T20:41:36;18.67;;;8.30;;
28577;SDS011;15769;52.248;15.818;2023-04-03T20:46:39;22.98;;;9.10;;
28577;SDS011;15769;52.248;15.818;2023-04-03T20:51:54;21.70;;;7.68;;
28577;SDS011;15769;52.248;15.818;2023-04-03T20:56:58;13.88;;;5.68;;
28577;SDS011;15769;52.248;15.818;2023-04-03T21:02:03;14.32;;;6.20;;
28577;SDS011;15769;52.248;15.818;2023-04-03T21:24:17;12.35;;;5.75;;
28577;SDS011;15769;52.248;15.818;2023-04-03T21:29:27;24.58;;;8.30;;
28577;SDS011;15769;52.248;15.818;2023-04-03T21:34:40;25.48;;;7.85;;
28577;SDS011;15769;52.248;15.818;2023-04-03T21:39:51;27.85;;;8.60;;
28577;SDS011;15769;52.248;15.818;2023-04-03T21:45:18;16.67;;;5.22;;
28577;SDS011;15769;52.248;15.818;2023-04-03T21:50:22;11.88;;;5.03;;
28577;SDS011;15769;52.248;15.818;2023-04-03T21:55:25;12.48;;;4.88;;
28577;SDS011;15769;52.248;15.818;2023-04-03T22:00:29;11.68;;;4.47;;
28577;SDS011;15769;52.248;15.818;2023-04-03T22:05:31;12.33;;;5.00;;
28577;SDS011;15769;52.248;15.818;2023-04-03T22:10:38;14.80;;;5.55;;
28577;SDS011;15769;52.248;15.818;2023-04-03T22:15:45;11.88;;;5.18;;
28577;SDS011;15769;52.248;15.818;2023-04-03T22:21:05;10.77;;;4.22;;
28577;SDS011;15769;52.248;15.818;2023-04-03T22:26:38;10.32;;;3.92;;
28577;SDS011;15769;52.248;15.818;2023-04-03T22:31:45;8.27;;;4.13;;
28577;SDS011;15769;52.248;15.818;2023-04-03T22:36:47;8.15;;;3.58;;
28577;SDS011;15769;52.248;15.818;2023-04-03T22:41:50;18.45;;;5.70;;
28577;SDS011;15769;52.248;15.818;2023-04-03T22:46:53;15.13;;;5.25;;
28577;SDS011;15769;52.248;15.818;2023-04-03T22:51:56;30.85;;;7.15;;
28577;SDS011;15769;52.248;15.818;2023-04-03T22:56:58;23.40;;;5.93;;
28577;SDS011;15769;52.248;15.818;2023-04-03T23:02:02;15.35;;;3.85;;
28577;SDS011;15769;52.248;15.818;2023-04-03T23:07:04;10.60;;;3.50;;
28577;SDS011;15769;52.248;15.818;2023-04-03T23:12:07;11.63;;;4.27;;
28577;SDS011;15769;52.248;15.818;2023-04-03T23:17:10;15.80;;;4.90;;
28577;SDS011;15769;52.248;15.818;2023-04-03T23:22:13;11.05;;;4.53;;
28577;SDS011;15769;52.248;15.818;2023-04-03T23:27:16;9.30;;;4.10;;
28577;SDS011;15769;52.248;15.818;2023-04-03T23:32:19;10.80;;;4.38;;
28577;SDS011;15769;52.248;15.818;2023-04-03T23:37:21;9.02;;;4.60;;
28577;SDS011;15769;52.248;15.818;2023-04-03T23:42:25;10.45;;;4.50;;
28577;SDS011;15769;52.248;15.818;2023-04-03T23:47:28;10.10;;;4.18;;
28577;SDS011;15769;52.248;15.818;2023-04-03T23:52:31;11.50;;;3.47;;
28577;SDS011;15769;52.248;15.818;2023-04-03T23:57:34;12.75;;;4.10;;
